OKBK/KWI METAR and TAF weather

Enter ICAO airport designator
Station Type Date Time Source
OKBK METAR 2019/04/18 14:00 UTC NOAA

OKBK 181400Z 12010KT 8000 NSC 28/18 Q1005 NOSIG


Station Type Date Time Source
OKBK Decoded METAR 2019/04/18 14:00 UTC NOAA

Kuwait Internationalairport, Kuwait (OKBK) 29-13N 047-59E 55M
Apr 18, 2019 - 10:00 AM EDT / 2019.04.18 1400 UTC
Wind: from the ESE (120 degrees) at 12 MPH (10 KT):0
Visibility: 4 mile(s):0
Temperature: 82 F (28 C)
Dew Point: 64 F (18 C)
Relative Humidity: 54%
Pressure (altimeter): 29.68 in. Hg (1005 hPa)
ob: OKBK 181400Z 12010KT 8000 NSC 28/18 Q1005 NOSIG
cycle: 14

Station Type Date Time Source
OKBK TAF 2019/04/18 12:48 UTC NOAA

TAF TAF OKBK 181045Z 1812/1918 13010G20KT 7000 FEW040 BKN080
TEMPO 1812/1821 4000 TSRA/BLDU FEW025CB

Example: see airport list